Time;durP1;ratioP1;P1;durP2;ratioP2;P2;SDS_P1;SDS_P2;PMS_P1;PMS_P2;Temp;Humidity;BMP_temperature;BMP_pressure;BME280_temperature;BME280_humidity;BME280_pressure;Samples;Min_cycle;Max_cycle;Signal;HPM_P1;HPM_P2
2022/04/04 00:02:26;;;;;;;11.68;10.52;;;0.40;99.90;;;;;;5976400;24;20271;-73
2022/04/04 00:04:53;;;;;;;11.80;10.60;;;0.40;99.90;;;;;;5976224;24;20222;-73
2022/04/04 00:07:20;;;;;;;11.70;10.35;;;0.30;99.90;;;;;;5976876;23;20218;-73
2022/04/04 00:09:47;;;;;;;12.00;10.90;;;0.30;99.90;;;;;;5975340;23;20191;-73
2022/04/04 00:12:14;;;;;;;12.25;11.02;;;0.30;99.90;;;;;;5977574;23;20201;-73
2022/04/04 00:14:41;;;;;;;11.65;10.65;;;0.30;99.90;;;;;;5976253;24;20223;-73
2022/04/04 00:17:09;;;;;;;10.40;9.50;;;0.30;99.90;;;;;;5975950;23;20721;-73
2022/04/04 00:19:36;;;;;;;13.05;11.07;;;0.30;99.90;;;;;;5975364;24;20275;-73
2022/04/04 00:22:03;;;;;;;11.50;10.50;;;0.30;99.90;;;;;;5978212;24;20574;-73
2022/04/04 00:24:30;;;;;;;11.90;10.70;;;0.30;99.90;;;;;;5976844;23;20217;-73
2022/04/04 00:26:57;;;;;;;12.82;10.68;;;0.30;99.90;;;;;;5976075;24;20233;-73
2022/04/04 00:29:25;;;;;;;11.88;10.68;;;0.30;99.90;;;;;;5975834;23;20261;-73
2022/04/04 00:31:52;;;;;;;10.88;9.88;;;0.20;99.90;;;;;;5977069;23;20191;-73
2022/04/04 00:34:21;;;;;;;11.55;10.32;;;0.30;99.90;;;;;;5976871;24;20301;-73
2022/04/04 00:36:48;;;;;;;11.00;9.95;;;0.30;99.90;;;;;;5977476;23;20213;-73
2022/04/04 00:39:15;;;;;;;10.80;9.65;;;0.20;99.90;;;;;;5975876;23;20199;-73
2022/04/04 00:41:43;;;;;;;10.88;9.77;;;0.20;99.90;;;;;;5976446;24;20670;-73
2022/04/04 00:44:11;;;;;;;12.02;10.70;;;0.20;99.90;;;;;;5976454;24;20199;-73
2022/04/04 00:46:41;;;;;;;12.77;11.07;;;0.20;99.90;;;;;;5977340;23;20213;-73
2022/04/04 00:49:09;;;;;;;10.80;9.80;;;0.20;99.90;;;;;;5975780;23;20227;-73
2022/04/04 00:51:37;;;;;;;11.43;10.32;;;0.20;99.90;;;;;;5978136;24;20222;-73
2022/04/04 00:54:05;;;;;;;12.13;10.88;;;0.20;99.90;;;;;;5976434;24;20253;-73
2022/04/04 00:56:33;;;;;;;12.35;11.15;;;0.20;99.90;;;;;;5976816;23;20284;-73
2022/04/04 00:59:01;;;;;;;10.95;9.85;;;0.20;99.90;;;;;;5976396;23;20192;-73
2022/04/04 01:01:29;;;;;;;12.68;11.57;;;0.20;99.90;;;;;;5961874;24;20607;-73
2022/04/04 01:03:56;;;;;;;10.27;9.38;;;0.20;99.90;;;;;;5977493;23;20334;-73
2022/04/04 01:06:23;;;;;;;10.32;9.32;;;0.20;99.90;;;;;;5976457;23;20245;-73
2022/04/04 01:08:52;;;;;;;10.48;9.35;;;0.20;99.90;;;;;;5975293;24;20214;-73
2022/04/04 01:11:19;;;;;;;9.05;8.25;;;0.20;99.90;;;;;;5977926;24;20187;-73
2022/04/04 01:13:46;;;;;;;9.02;8.18;;;0.20;99.90;;;;;;5977118;24;20671;-73
2022/04/04 01:16:13;;;;;;;9.32;8.50;;;0.10;99.90;;;;;;5976274;24;20218;-75
2022/04/04 01:18:41;;;;;;;9.60;8.70;;;0.00;99.90;;;;;;5965304;23;20215;-73
2022/04/04 01:21:08;;;;;;;8.55;7.75;;;0.00;99.90;;;;;;5970957;23;20231;-73
2022/04/04 01:23:41;;;;;;;8.63;7.93;;;0.00;99.90;;;;;;5976289;23;20222;-73
2022/04/04 01:26:11;;;;;;;10.40;9.40;;;0.00;99.90;;;;;;5976917;24;20207;-73
2022/04/04 01:28:38;;;;;;;9.40;8.52;;;0.00;99.90;;;;;;5976829;24;20220;-73
2022/04/04 01:31:06;;;;;;;9.00;8.13;;;0.00;99.90;;;;;;5976375;23;20195;-73
2022/04/04 01:33:33;;;;;;;10.75;9.32;;;0.00;99.90;;;;;;5974843;23;20198;-73
2022/04/04 01:36:00;;;;;;;10.10;9.07;;;0.10;99.90;;;;;;5976063;23;20230;-73
2022/04/04 01:38:28;;;;;;;9.13;8.30;;;0.10;99.90;;;;;;5975671;24;20595;-73
2022/04/04 01:40:55;;;;;;;9.90;9.00;;;0.00;99.90;;;;;;5974890;23;20742;-73
2022/04/04 01:43:23;;;;;;;10.85;9.75;;;0.00;99.90;;;;;;5977919;24;20274;-73
2022/04/04 01:48:35;;;;;;;9.82;8.88;;;0.00;99.90;;;;;;5957551;24;20277;-73
2022/04/04 01:51:02;;;;;;;10.02;9.13;;;0.00;99.90;;;;;;5976254;23;20263;-73
2022/04/04 01:53:31;;;;;;;10.77;9.68;;;-0.10;99.90;;;;;;5975361;23;20187;-73
2022/04/04 01:56:01;;;;;;;10.70;9.70;;;-0.10;99.90;;;;;;5976086;23;20222;-73
2022/04/04 01:58:29;;;;;;;11.55;10.45;;;-0.20;99.90;;;;;;5976088;23;20658;-73
2022/04/04 02:00:58;;;;;;;10.80;9.80;;;-0.30;99.90;;;;;;5975347;23;20206;-76
2022/04/04 02:03:25;;;;;;;11.40;10.20;;;-0.40;99.90;;;;;;5972331;23;20191;-73
2022/04/04 02:05:52;;;;;;;10.60;9.57;;;-0.40;99.90;;;;;;5975964;23;20226;-73
2022/04/04 02:08:19;;;;;;;10.82;9.77;;;-0.50;99.90;;;;;;5976558;23;20694;-73
2022/04/04 02:10:46;;;;;;;11.25;10.10;;;-0.50;99.90;;;;;;5970309;23;20241;-73
2022/04/04 02:13:13;;;;;;;9.82;9.00;;;-0.50;99.90;;;;;;5970661;23;20265;-73
2022/04/04 02:15:41;;;;;;;10.70;9.70;;;-0.50;99.90;;;;;;5976927;23;20571;-73
2022/04/04 02:18:09;;;;;;;10.52;9.25;;;-0.60;99.90;;;;;;5976224;23;20216;-73
2022/04/04 02:20:36;;;;;;;10.80;9.80;;;-0.60;99.90;;;;;;5975008;23;20194;-73
2022/04/04 02:23:03;;;;;;;11.60;10.50;;;-0.50;99.90;;;;;;5971916;23;20663;-73
2022/04/04 02:25:30;;;;;;;10.82;9.70;;;-0.50;99.90;;;;;;5990640;23;20266;-73
2022/04/04 02:27:57;;;;;;;11.40;10.40;;;-0.50;99.90;;;;;;5982552;24;20670;-73
2022/04/04 02:30:24;;;;;;;13.48;11.45;;;-0.60;99.90;;;;;;5971985;23;20191;-73
2022/04/04 02:32:53;;;;;;;14.50;13.00;;;-0.60;99.90;;;;;;5978013;24;20606;-73
2022/04/04 02:35:20;;;;;;;12.32;11.23;;;-0.60;99.90;;;;;;5974881;23;20713;-73
2022/04/04 02:37:47;;;;;;;13.23;11.82;;;-0.60;99.90;;;;;;5977698;24;20196;-73
2022/04/04 02:40:15;;;;;;;13.98;12.52;;;-0.60;99.90;;;;;;5974463;23;20201;-73
2022/04/04 02:42:42;;;;;;;15.02;13.60;;;-0.70;99.90;;;;;;5977128;24;20640;-73
2022/04/04 02:45:09;;;;;;;14.95;13.45;;;-0.70;99.90;;;;;;5951614;23;20198;-73
2022/04/04 02:47:36;;;;;;;15.48;13.98;;;-0.70;99.90;;;;;;5969489;23;20237;-73
2022/04/04 02:50:06;;;;;;;15.57;14.15;;;-0.70;99.90;;;;;;5976524;23;20196;-73
2022/04/04 02:52:33;;;;;;;16.05;14.45;;;-0.80;99.90;;;;;;5976216;23;20210;-73
2022/04/04 02:56:28;;;;;;;16.30;14.65;;;-0.80;99.90;;;;;;5976378;23;20268;-73
2022/04/04 02:57:47;;;;;;;16.70;14.88;;;-0.80;99.90;;;;;;5948255;24;20194;-73
2022/04/04 03:00:17;;;;;;;16.77;15.00;;;-0.90;99.90;;;;;;5968332;23;20188;-77
2022/04/04 03:02:44;;;;;;;17.42;15.65;;;-0.90;99.90;;;;;;5962455;23;20214;-77
2022/04/04 03:05:13;;;;;;;18.30;15.40;;;-0.90;99.90;;;;;;5974027;24;20649;-77
2022/04/04 03:07:40;;;;;;;17.00;15.23;;;-0.90;99.90;;;;;;5950569;24;20635;-76
2022/04/04 03:10:09;;;;;;;21.30;15.95;;;-0.90;99.90;;;;;;5947960;24;20403;-76
2022/04/04 03:12:41;;;;;;;17.10;15.40;;;-1.00;99.90;;;;;;5951061;24;20272;-77
2022/04/04 03:15:11;;;;;;;18.92;16.95;;;-1.00;99.90;;;;;;5948709;24;20249;-78
2022/04/04 03:17:40;;;;;;;17.42;15.63;;;-1.00;99.90;;;;;;5950364;24;20210;-77
2022/04/04 03:20:09;;;;;;;20.25;18.33;;;-1.10;99.90;;;;;;5948739;24;20194;-77
2022/04/04 03:22:38;;;;;;;19.65;17.38;;;-1.10;99.90;;;;;;5923283;24;20197;-77
2022/04/04 03:25:06;;;;;;;20.35;18.30;;;-1.20;99.90;;;;;;5944435;24;20316;-77
2022/04/04 03:27:34;;;;;;;20.30;18.23;;;-1.20;99.90;;;;;;5950741;24;20193;-77
2022/04/04 03:30:02;;;;;;;20.50;18.35;;;-1.30;99.90;;;;;;5948553;24;20197;-77
2022/04/04 03:32:29;;;;;;;22.27;20.00;;;-1.30;99.90;;;;;;5948804;24;20216;-77
2022/04/04 03:34:56;;;;;;;20.83;18.48;;;-1.40;99.90;;;;;;5948908;24;20201;-79
2022/04/04 03:37:24;;;;;;;21.77;19.40;;;-1.30;99.90;;;;;;5949437;23;20214;-78
2022/04/04 03:39:53;;;;;;;21.83;19.58;;;-1.30;99.90;;;;;;5949967;24;20193;-80
2022/04/04 03:42:21;;;;;;;21.73;19.42;;;-1.30;99.90;;;;;;5949883;24;20250;-81
2022/04/04 03:44:48;;;;;;;21.83;19.58;;;-1.30;99.90;;;;;;5949741;24;20221;-78
2022/04/04 03:47:16;;;;;;;22.13;19.88;;;-1.30;99.90;;;;;;5948212;24;20219;-78
2022/04/04 03:49:42;;;;;;;19.65;17.65;;;-1.30;99.90;;;;;;5950262;24;20195;-77
2022/04/04 03:52:11;;;;;;;22.23;20.02;;;-1.30;99.90;;;;;;5949298;24;20217;-77
2022/04/04 03:54:39;;;;;;;22.48;18.73;;;-1.30;99.90;;;;;;5950334;24;20196;-77
2022/04/04 03:57:07;;;;;;;23.10;19.52;;;-1.30;99.90;;;;;;5949212;24;20224;-77
2022/04/04 03:59:34;;;;;;;21.67;19.38;;;-1.40;99.90;;;;;;5949426;24;20281;-77
2022/04/04 04:02:01;;;;;;;23.05;19.15;;;-1.40;99.90;;;;;;5944956;24;20203;-77
2022/04/04 04:04:28;;;;;;;21.63;19.35;;;-1.40;99.90;;;;;;5939836;24;20213;-77
2022/04/04 04:06:55;;;;;;;23.63;21.13;;;-1.40;99.90;;;;;;5949536;24;20222;-77
2022/04/04 04:09:22;;;;;;;23.90;21.50;;;-1.40;99.90;;;;;;5945978;24;20197;-77
2022/04/04 04:11:50;;;;;;;21.45;19.25;;;-1.40;99.90;;;;;;5948150;24;20243;-76
2022/04/04 04:14:19;;;;;;;21.95;19.60;;;-1.40;99.90;;;;;;5941182;24;20190;-76
2022/04/04 04:16:46;;;;;;;22.25;19.88;;;-1.50;99.90;;;;;;5946595;24;20218;-77
2022/04/04 04:21:55;;;;;;;29.92;20.40;;;-1.50;99.90;;;;;;5942337;24;20184;-88
2022/04/04 04:24:22;;;;;;;23.88;20.50;;;-1.60;99.90;;;;;;5937716;24;20518;-76
2022/04/04 04:26:49;;;;;;;22.38;19.98;;;-1.60;99.90;;;;;;5947027;24;20311;-77
2022/04/04 04:29:17;;;;;;;23.65;21.15;;;-1.60;99.90;;;;;;5945131;24;20187;-77
2022/04/04 04:31:44;;;;;;;23.70;21.17;;;-1.60;99.90;;;;;;5936392;24;20223;-77
2022/04/04 04:34:11;;;;;;;24.38;21.75;;;-1.70;99.90;;;;;;5944488;24;20605;-78
2022/04/04 04:36:39;;;;;;;24.88;22.17;;;-1.70;99.90;;;;;;5948689;24;20282;-78
2022/04/04 04:39:06;;;;;;;27.08;21.83;;;-1.80;99.90;;;;;;5947578;24;20188;-77
2022/04/04 04:41:33;;;;;;;25.25;22.55;;;-1.80;99.90;;;;;;5940846;24;20279;-78
2022/04/04 04:44:03;;;;;;;24.55;22.05;;;-1.80;99.90;;;;;;5937068;24;20669;-77
2022/04/04 04:46:31;;;;;;;25.20;22.60;;;-1.90;99.90;;;;;;5943396;24;20246;-77
2022/04/04 04:48:58;;;;;;;24.13;21.30;;;-1.90;99.90;;;;;;5941871;24;20665;-77
2022/04/04 04:51:25;;;;;;;28.08;22.63;;;-1.90;99.90;;;;;;5939901;24;20192;-78
2022/04/04 04:53:52;;;;;;;24.15;21.65;;;-1.90;99.90;;;;;;5944657;24;20207;-78
2022/04/04 04:56:19;;;;;;;27.23;23.35;;;-1.90;99.90;;;;;;5943818;24;20222;-78
2022/04/04 04:58:47;;;;;;;26.42;22.67;;;-1.90;99.90;;;;;;5940142;24;20263;-77
2022/04/04 05:01:14;;;;;;;26.67;23.75;;;-1.90;99.90;;;;;;5937893;24;20222;-78
2022/04/04 05:03:42;;;;;;;26.55;22.85;;;-1.90;99.90;;;;;;5940780;24;20233;-78
2022/04/04 05:06:10;;;;;;;25.08;22.38;;;-1.90;99.90;;;;;;5938548;24;20216;-78
2022/04/04 05:08:37;;;;;;;26.45;22.70;;;-1.90;99.90;;;;;;5943497;24;20201;-79
2022/04/04 05:11:04;;;;;;;24.92;22.27;;;-1.90;99.90;;;;;;5945130;24;20264;-78
2022/04/04 05:13:31;;;;;;;26.80;23.95;;;-1.90;99.90;;;;;;5947610;24;20541;-78
2022/04/04 05:15:59;;;;;;;24.75;21.67;;;-1.90;99.90;;;;;;5947084;24;20212;-77
2022/04/04 05:18:26;;;;;;;24.70;22.10;;;-1.90;99.90;;;;;;5946824;24;20190;-79
2022/04/04 05:20:54;;;;;;;23.73;21.10;;;-1.90;99.90;;;;;;5928089;24;20781;-78
2022/04/04 05:23:22;;;;;;;24.25;20.55;;;-1.90;99.90;;;;;;5943466;24;20216;-78
2022/04/04 05:25:49;;;;;;;22.85;20.25;;;-1.90;99.90;;;;;;5931421;24;20675;-78
2022/04/04 05:28:16;;;;;;;22.67;20.27;;;-1.80;99.90;;;;;;5946431;24;20194;-78
2022/04/04 05:30:43;;;;;;;24.52;21.73;;;-1.90;99.90;;;;;;5949241;24;20206;-78
2022/04/04 05:33:10;;;;;;;22.67;19.42;;;-1.80;99.90;;;;;;5943702;24;20561;-78
2022/04/04 05:35:37;;;;;;;22.15;19.00;;;-1.80;99.90;;;;;;5947379;24;20237;-78
2022/04/04 05:38:06;;;;;;;23.77;20.35;;;-1.80;99.90;;;;;;5943839;24;20743;-79
2022/04/04 05:40:34;;;;;;;20.38;18.40;;;-1.80;99.90;;;;;;5941154;24;20216;-78
2022/04/04 05:43:01;;;;;;;22.30;19.90;;;-1.80;99.90;;;;;;5945111;24;20194;-78
2022/04/04 05:45:28;;;;;;;20.48;18.33;;;-1.70;99.90;;;;;;5941518;24;20219;-78
2022/04/04 05:47:55;;;;;;;22.38;20.05;;;-1.70;99.90;;;;;;5942395;24;20272;-78
2022/04/04 05:50:23;;;;;;;20.40;18.30;;;-1.70;99.90;;;;;;5946129;24;20887;-78
2022/04/04 05:52:50;;;;;;;19.50;17.60;;;-1.60;99.90;;;;;;5946015;23;20198;-78
2022/04/04 05:55:18;;;;;;;18.85;16.90;;;-1.60;99.90;;;;;;5944369;24;20287;-78
2022/04/04 05:57:45;;;;;;;19.33;17.23;;;-1.50;99.90;;;;;;5947159;24;20192;-78
2022/04/04 06:00:14;;;;;;;20.95;18.75;;;-1.50;99.90;;;;;;5947736;24;20218;-78
2022/04/04 06:02:43;;;;;;;17.45;15.65;;;-1.40;99.90;;;;;;5946383;24;20561;-84
2022/04/04 06:05:11;;;;;;;17.05;15.40;;;-1.30;99.90;;;;;;5949499;24;20209;-77
2022/04/04 06:07:38;;;;;;;18.35;16.45;;;-1.30;99.90;;;;;;5949449;24;20277;-78
2022/04/04 06:10:08;;;;;;;17.20;15.50;;;-1.20;99.90;;;;;;5949023;24;20223;-78
2022/04/04 06:12:38;;;;;;;15.25;13.68;;;-1.20;99.90;;;;;;5949527;24;20779;-78
2022/04/04 06:15:06;;;;;;;15.10;13.70;;;-1.10;99.90;;;;;;5948919;24;20260;-77
2022/04/04 06:17:33;;;;;;;15.38;13.80;;;-1.10;99.90;;;;;;5945598;24;20314;-78
2022/04/04 06:20:00;;;;;;;15.73;14.23;;;-1.00;99.90;;;;;;5946640;24;20185;-78
2022/04/04 06:22:34;;;;;;;17.85;13.00;;;-0.90;99.90;;;;;;5944004;24;20598;-79
2022/04/04 06:25:01;;;;;;;15.20;13.50;;;-0.80;99.90;;;;;;5944703;24;20232;-78
2022/04/04 06:27:28;;;;;;;14.65;13.00;;;-0.60;99.90;;;;;;5945598;24;20226;-78
2022/04/04 06:29:56;;;;;;;15.70;13.27;;;-0.50;99.90;;;;;;5940613;24;20215;-78
2022/04/04 06:32:24;;;;;;;13.38;11.93;;;-0.30;99.90;;;;;;5942948;24;20598;-77
2022/04/04 06:34:51;;;;;;;13.50;12.20;;;0.10;99.90;;;;;;5947725;24;20203;-78
2022/04/04 06:37:18;;;;;;;12.32;11.23;;;0.50;99.90;;;;;;5947150;24;20192;-78
2022/04/04 06:39:46;;;;;;;12.43;10.50;;;1.00;99.90;;;;;;5947236;24;20250;-78
2022/04/04 06:42:14;;;;;;;13.05;10.48;;;1.40;99.90;;;;;;5944825;24;20212;-79
2022/04/04 06:44:42;;;;;;;10.50;9.43;;;1.80;99.90;;;;;;5947979;24;20211;-78
2022/04/04 06:47:11;;;;;;;11.60;10.32;;;2.20;99.90;;;;;;5947809;24;20878;-78
2022/04/04 06:49:38;;;;;;;10.50;9.45;;;2.60;99.90;;;;;;5940694;24;20555;-78
2022/04/04 06:52:05;;;;;;;10.73;9.73;;;2.80;99.90;;;;;;5931604;24;20198;-78
2022/04/04 06:54:32;;;;;;;11.30;10.20;;;3.10;99.90;;;;;;5938621;24;20270;-78
2022/04/04 06:56:59;;;;;;;11.45;10.30;;;3.20;99.90;;;;;;5944951;24;20286;-79
2022/04/04 06:59:27;;;;;;;9.77;8.88;;;3.50;99.90;;;;;;5937034;24;20622;-78
2022/04/04 07:01:54;;;;;;;9.00;8.20;;;3.70;99.90;;;;;;5935949;24;20202;-79
2022/04/04 07:04:23;;;;;;;10.27;9.27;;;3.90;99.90;;;;;;5946415;24;20306;-78
2022/04/04 07:06:50;;;;;;;10.25;9.25;;;4.20;99.90;;;;;;5947606;24;20302;-84
2022/04/04 07:09:17;;;;;;;10.95;9.57;;;4.60;99.90;;;;;;5947987;24;20676;-84
2022/04/04 07:11:44;;;;;;;10.02;9.10;;;5.00;99.90;;;;;;5940170;24;20269;-79
2022/04/04 07:14:11;;;;;;;9.45;8.55;;;5.40;99.90;;;;;;5943978;24;20229;-79
2022/04/04 07:16:38;;;;;;;8.82;7.93;;;5.90;99.90;;;;;;5944550;24;20238;-80
2022/04/04 07:19:05;;;;;;;9.68;8.70;;;6.20;99.90;;;;;;5946243;24;20226;-78
2022/04/04 07:21:33;;;;;;;9.32;8.43;;;6.50;99.90;;;;;;5945352;24;20226;-79
2022/04/04 07:24:00;;;;;;;8.10;7.40;;;6.70;99.90;;;;;;5944301;24;20266;-79
2022/04/04 07:26:29;;;;;;;8.68;7.80;;;6.90;99.90;;;;;;5947625;24;20615;-79
2022/04/04 07:28:56;;;;;;;9.38;8.48;;;7.20;99.90;;;;;;5948813;24;20686;-79
2022/04/04 07:31:23;;;;;;;9.25;8.45;;;7.50;99.40;;;;;;5948304;24;20219;-78
2022/04/04 07:33:50;;;;;;;9.40;8.50;;;7.70;99.40;;;;;;5948944;24;20226;-79
2022/04/04 07:36:17;;;;;;;9.05;8.18;;;7.70;98.40;;;;;;5947688;24;20235;-79
2022/04/04 07:38:45;;;;;;;10.55;7.68;;;7.60;97.60;;;;;;5946923;24;20184;-79
2022/04/04 07:41:12;;;;;;;8.77;7.90;;;7.70;98.20;;;;;;5947206;24;20191;-79
2022/04/04 07:43:39;;;;;;;8.35;7.60;;;7.90;97.40;;;;;;5945372;24;20191;-79
2022/04/04 07:46:07;;;;;;;9.07;8.18;;;8.40;97.70;;;;;;5943984;24;20502;-79
2022/04/04 07:48:34;;;;;;;8.05;7.35;;;9.00;96.10;;;;;;5945293;24;20645;-79
2022/04/04 07:51:01;;;;;;;7.88;7.18;;;9.60;95.00;;;;;;5948985;24;20270;-79
2022/04/04 07:53:28;;;;;;;7.18;6.53;;;10.00;92.00;;;;;;5946239;24;20192;-79
2022/04/04 07:55:56;;;;;;;7.93;6.90;;;10.20;90.50;;;;;;5948550;24;20282;-79
2022/04/04 07:58:23;;;;;;;8.00;7.30;;;10.20;88.70;;;;;;5944012;24;20223;-79
2022/04/04 08:00:52;;;;;;;8.35;7.55;;;10.30;89.00;;;;;;5946081;24;20691;-79
2022/04/04 08:03:19;;;;;;;8.68;7.78;;;10.50;86.20;;;;;;5948297;24;20269;-80
2022/04/04 08:05:49;;;;;;;8.25;7.45;;;10.70;84.50;;;;;;5947420;24;20217;-79
2022/04/04 08:08:17;;;;;;;7.82;7.00;;;11.10;85.90;;;;;;5946227;24;20226;-80
2022/04/04 08:10:44;;;;;;;5.53;5.10;;;11.50;82.30;;;;;;5947938;24;20532;-79
2022/04/04 08:13:12;;;;;;;6.15;5.55;;;11.20;73.90;;;;;;5946481;24;20216;-79
2022/04/04 08:15:39;;;;;;;5.68;5.18;;;10.20;74.40;;;;;;5946255;24;20246;-80
2022/04/04 08:18:07;;;;;;;5.22;4.80;;;10.20;76.20;;;;;;5944904;24;20268;-79
2022/04/04 08:20:34;;;;;;;5.85;5.30;;;10.50;75.10;;;;;;5946217;24;20188;-80
2022/04/04 08:23:01;;;;;;;6.10;5.50;;;10.60;73.10;;;;;;5946238;24;20192;-79
2022/04/04 08:25:28;;;;;;;6.40;5.85;;;10.70;70.60;;;;;;5953949;23;20219;-79
2022/04/04 08:27:55;;;;;;;6.90;6.20;;;10.70;69.70;;;;;;5948381;24;20216;-79
2022/04/04 08:30:24;;;;;;;6.70;6.10;;;10.90;70.00;;;;;;5950092;24;20298;-79
2022/04/04 08:32:51;;;;;;;6.25;5.68;;;10.50;68.40;;;;;;5945659;24;20312;-79
2022/04/04 08:35:18;;;;;;;6.68;6.10;;;10.30;68.90;;;;;;5937545;24;20564;-79
2022/04/04 08:37:47;;;;;;;6.40;5.80;;;10.20;67.80;;;;;;5950034;24;20196;-78
2022/04/04 08:40:18;;;;;;;6.00;5.60;;;9.50;68.70;;;;;;5948947;24;20203;-79
2022/04/04 08:42:45;;;;;;;6.30;5.80;;;9.10;67.90;;;;;;5948017;24;20198;-78
2022/04/04 08:45:13;;;;;;;6.38;5.80;;;9.10;67.50;;;;;;5948221;24;20302;-79
2022/04/04 08:47:42;;;;;;;6.60;6.00;;;9.20;70.40;;;;;;5946983;24;20689;-79
2022/04/04 08:50:11;;;;;;;6.60;6.00;;;9.50;67.60;;;;;;5948284;24;20214;-87
2022/04/04 08:52:38;;;;;;;6.57;6.07;;;9.50;66.40;;;;;;5929882;24;20230;-77
2022/04/04 08:55:06;;;;;;;6.28;5.72;;;9.70;66.60;;;;;;5943505;24;20208;-85
2022/04/04 08:57:33;;;;;;;6.70;6.10;;;9.40;66.70;;;;;;5941309;24;20185;-80
2022/04/04 09:00:00;;;;;;;6.55;5.97;;;9.30;65.50;;;;;;5947530;24;20262;-78
2022/04/04 09:02:27;;;;;;;6.20;5.70;;;9.30;66.50;;;;;;5985899;23;20581;-77
2022/04/04 09:05:04;;;;;;;6.65;6.05;;;9.30;70.90;;;;;;6018349;23;20210;-76
2022/04/04 09:07:31;;;;;;;6.50;6.00;;;9.90;69.30;;;;;;5995792;23;20217;-73
2022/04/04 09:10:00;;;;;;;6.32;5.80;;;10.10;67.00;;;;;;5995880;23;20197;-72
2022/04/04 09:12:27;;;;;;;6.10;5.60;;;10.00;63.80;;;;;;5990950;23;20643;-73
2022/04/04 09:14:57;;;;;;;5.40;5.00;;;9.70;62.10;;;;;;6004879;23;20629;-72
2022/04/04 09:17:27;;;;;;;5.85;5.35;;;9.90;62.10;;;;;;6005235;23;20199;-72
2022/04/04 09:19:55;;;;;;;5.38;4.97;;;9.90;60.20;;;;;;6004934;23;20352;-72
2022/04/04 09:22:23;;;;;;;5.32;4.93;;;10.00;58.50;;;;;;6005697;23;20194;-72
2022/04/04 09:24:52;;;;;;;5.45;4.95;;;10.10;58.80;;;;;;6004858;23;20265;-70
2022/04/04 09:27:22;;;;;;;5.22;4.75;;;10.00;57.50;;;;;;6004806;23;20744;-70
2022/04/04 09:29:51;;;;;;;5.70;5.28;;;10.40;57.30;;;;;;6005251;23;20738;-70
2022/04/04 09:32:19;;;;;;;4.93;4.53;;;10.50;57.00;;;;;;6005285;23;20325;-71
2022/04/04 09:35:01;;;;;;;4.68;4.38;;;10.40;55.90;;;;;;6005012;23;20208;-75
2022/04/04 09:37:31;;;;;;;5.53;5.13;;;10.00;55.20;;;;;;6002542;23;20183;-74
2022/04/04 09:40:10;;;;;;;5.00;4.60;;;9.70;56.80;;;;;;6005141;23;20259;-74
2022/04/04 09:42:38;;;;;;;5.65;5.25;;;9.90;59.50;;;;;;6005010;23;20624;-74
2022/04/04 09:45:07;;;;;;;5.22;4.82;;;10.30;56.50;;;;;;6004967;23;20302;-73
2022/04/04 09:47:52;;;;;;;5.70;5.30;;;10.30;58.20;;;;;;6005067;23;20230;-74
2022/04/04 09:50:39;;;;;;;6.07;5.55;;;10.50;58.00;;;;;;6005030;23;20190;-74
2022/04/04 09:53:07;;;;;;;6.10;5.60;;;10.80;59.70;;;;;;6005455;23;20272;-74
2022/04/04 09:55:37;;;;;;;5.75;5.25;;;11.10;58.00;;;;;;6002714;23;20209;-73
2022/04/04 09:58:06;;;;;;;6.25;5.25;;;11.30;58.70;;;;;;6004951;23;20698;-85
2022/04/04 10:00:36;;;;;;;5.47;4.97;;;11.80;57.90;;;;;;6004925;23;20327;-85
2022/04/04 10:03:05;;;;;;;5.60;5.20;;;11.90;57.70;;;;;;6005193;23;20204;-83
2022/04/04 10:05:32;;;;;;;5.38;4.88;;;11.60;56.90;;;;;;6004817;23;20235;-82
2022/04/04 10:08:01;;;;;;;5.40;4.97;;;11.30;57.40;;;;;;6004987;23;20231;-83
2022/04/04 10:10:31;;;;;;;4.40;4.10;;;11.70;57.40;;;;;;6005217;23;20198;-80
2022/04/04 10:12:58;;;;;;;4.50;4.20;;;11.90;55.60;;;;;;6004785;23;20581;-81
2022/04/04 10:15:27;;;;;;;4.57;4.28;;;12.40;55.00;;;;;;6002162;23;20202;-81
2022/04/04 10:17:56;;;;;;;5.78;5.38;;;13.10;55.50;;;;;;6005223;23;20220;-81
2022/04/04 10:20:23;;;;;;;5.50;4.63;;;12.70;52.90;;;;;;6004851;23;20661;-80
2022/04/04 10:22:53;;;;;;;4.70;4.30;;;12.00;52.30;;;;;;6004670;23;20693;-81
2022/04/04 10:25:24;;;;;;;4.70;4.30;;;11.50;52.80;;;;;;6004528;23;20678;-76
2022/04/04 10:27:52;;;;;;;4.90;4.60;;;10.80;54.10;;;;;;6004978;23;20214;-80
2022/04/04 10:30:30;;;;;;;4.95;4.30;;;10.60;54.80;;;;;;6004636;23;20191;-78
2022/04/04 10:32:57;;;;;;;5.00;4.57;;;10.50;55.70;;;;;;5983445;23;20191;-73
2022/04/04 10:35:25;;;;;;;4.70;4.30;;;10.70;56.50;;;;;;5989892;23;20342;-73
2022/04/04 10:37:53;;;;;;;4.07;3.78;;;11.40;56.70;;;;;;5998079;23;20605;-73
2022/04/04 10:40:23;;;;;;;5.38;4.97;;;12.20;55.40;;;;;;5998421;23;20251;-73
2022/04/04 10:43:10;;;;;;;5.65;5.05;;;12.10;57.20;;;;;;6000954;23;20207;-73
2022/04/04 10:45:59;;;;;;;5.53;5.13;;;12.20;55.80;;;;;;5987783;23;20213;-73
2022/04/04 10:48:33;;;;;;;4.90;4.50;;;11.50;55.50;;;;;;5985614;23;20216;-73
2022/04/04 10:51:11;;;;;;;5.03;4.40;;;11.20;54.60;;;;;;6001882;23;20191;-71
2022/04/04 10:53:44;;;;;;;6.00;5.45;;;11.50;56.20;;;;;;5995809;23;20183;-72
2022/04/04 10:56:18;;;;;;;5.25;4.75;;;12.00;56.60;;;;;;6000580;23;20264;-73
2022/04/04 10:58:45;;;;;;;4.57;4.18;;;12.10;57.00;;;;;;6002316;23;20204;-73
2022/04/04 11:01:16;;;;;;;4.55;4.25;;;11.90;54.60;;;;;;6000401;23;20284;-73
2022/04/04 11:03:59;;;;;;;5.30;4.80;;;11.80;55.60;;;;;;6001722;23;20185;-76
2022/04/04 11:09:47;;;;;;;4.75;4.35;;;11.50;54.50;;;;;;5986654;23;20212;-71
2022/04/04 11:12:15;;;;;;;5.15;4.65;;;11.20;55.30;;;;;;6000341;23;20308;-72
2022/04/04 11:14:46;;;;;;;4.60;4.30;;;11.20;57.30;;;;;;5989105;23;20239;-72
2022/04/04 11:17:30;;;;;;;4.43;4.13;;;11.40;57.40;;;;;;5997633;23;20193;-72
2022/04/04 11:20:04;;;;;;;4.93;4.53;;;11.80;58.10;;;;;;5985282;23;20210;-71
2022/04/04 11:22:33;;;;;;;4.30;3.90;;;12.30;57.40;;;;;;5999140;23;20194;-73
2022/04/04 11:25:04;;;;;;;4.45;4.07;;;12.80;56.20;;;;;;5999847;23;20557;-73
2022/04/04 11:27:34;;;;;;;4.30;4.00;;;13.50;56.00;;;;;;5993630;23;20301;-73
2022/04/04 11:30:05;;;;;;;4.50;4.18;;;13.50;55.50;;;;;;5990646;23;20189;-73
2022/04/04 11:32:34;;;;;;;4.25;3.95;;;13.80;56.50;;;;;;6003856;23;20190;-72
2022/04/04 11:35:07;;;;;;;4.75;4.35;;;13.80;54.90;;;;;;6003227;23;20201;-72
2022/04/04 11:37:42;;;;;;;5.55;4.20;;;13.10;54.20;;;;;;5997655;23;20197;-71
2022/04/04 11:40:13;;;;;;;4.72;4.32;;;12.80;54.80;;;;;;5995580;23;20189;-73
2022/04/04 11:42:44;;;;;;;4.63;4.32;;;12.80;55.60;;;;;;6003829;23;20630;-73
2022/04/04 11:45:16;;;;;;;4.70;4.30;;;12.70;54.40;;;;;;5999341;23;20209;-73
2022/04/04 11:47:49;;;;;;;4.57;4.28;;;12.20;55.50;;;;;;6001049;23;20716;-73
2022/04/04 11:50:17;;;;;;;4.18;3.85;;;12.10;55.50;;;;;;5995575;23;20185;-73
2022/04/04 11:52:48;;;;;;;4.50;4.10;;;12.10;55.10;;;;;;6001798;23;20340;-73
2022/04/04 11:55:17;;;;;;;4.72;4.32;;;11.80;54.60;;;;;;6000621;23;20259;-73
2022/04/04 11:57:49;;;;;;;4.20;3.90;;;11.80;55.00;;;;;;5999911;23;20209;-73
2022/04/04 12:00:26;;;;;;;4.05;3.75;;;11.50;56.30;;;;;;6002489;23;20235;-73
2022/04/04 12:02:54;;;;;;;4.55;4.15;;;11.40;58.10;;;;;;5992139;23;20192;-73
2022/04/04 12:05:23;;;;;;;4.50;4.10;;;11.50;57.10;;;;;;6001221;23;20315;-74
2022/04/04 12:07:52;;;;;;;4.97;4.57;;;12.20;59.40;;;;;;6002198;23;20756;-73
2022/04/04 12:10:31;;;;;;;4.88;4.47;;;12.60;56.60;;;;;;6003069;23;20332;-73
2022/04/04 12:13:01;;;;;;;4.68;4.28;;;12.40;57.40;;;;;;5997557;23;20185;-74
2022/04/04 12:15:31;;;;;;;5.10;4.60;;;12.70;58.10;;;;;;5992857;23;20213;-73
2022/04/04 12:17:59;;;;;;;4.80;4.40;;;12.50;56.40;;;;;;5997716;23;20284;-73
2022/04/04 12:20:26;;;;;;;4.80;4.40;;;12.00;57.00;;;;;;5999873;23;20192;-73
2022/04/04 12:25:40;;;;;;;4.72;4.22;;;10.50;57.40;;;;;;5940954;23;20270;-73
2022/04/04 12:28:08;;;;;;;4.40;4.10;;;10.30;58.70;;;;;;5998178;23;20303;-73
2022/04/04 12:30:37;;;;;;;4.60;4.20;;;10.00;60.50;;;;;;5989113;23;20271;-73
2022/04/04 12:33:11;;;;;;;4.47;4.18;;;10.10;61.20;;;;;;5999636;23;20230;-73
2022/04/04 12:35:43;;;;;;;5.28;4.78;;;10.00;60.60;;;;;;5993019;23;20290;-72
2022/04/04 12:38:11;;;;;;;4.05;3.75;;;10.20;63.20;;;;;;5988288;23;20655;-74
2022/04/04 12:40:39;;;;;;;5.45;4.95;;;10.60;60.40;;;;;;5998012;23;20218;-71
2022/04/04 12:43:10;;;;;;;4.93;4.53;;;11.00;61.70;;;;;;6004218;23;20231;-74
2022/04/04 12:45:47;;;;;;;4.68;4.38;;;11.20;59.00;;;;;;5976157;23;20224;-72
2022/04/04 12:48:14;;;;;;;5.20;4.80;;;10.70;59.30;;;;;;5977985;23;20226;-73
2022/04/04 12:50:43;;;;;;;5.38;4.97;;;10.00;59.80;;;;;;5998630;23;20188;-72
2022/04/04 12:53:12;;;;;;;4.93;4.53;;;9.80;61.50;;;;;;6000799;23;20871;-72
2022/04/04 12:55:40;;;;;;;4.82;4.43;;;10.10;62.40;;;;;;6001172;23;20190;-72
2022/04/04 12:58:23;;;;;;;5.10;4.60;;;10.50;61.10;;;;;;6003788;23;20193;-72
2022/04/04 13:00:51;;;;;;;4.70;4.30;;;10.50;59.50;;;;;;6004389;23;20190;-72